sensor_id;sensor_type;location;lat;lon;timestamp;temperature;humidity
60495;DHT22;46342;49.046;11.920;2023-12-22T00:01:07;7.10;69.50
60495;DHT22;46342;49.046;11.920;2023-12-22T00:03:32;7.10;68.80
60495;DHT22;46342;49.046;11.920;2023-12-22T00:05:58;7.00;68.80
60495;DHT22;46342;49.046;11.920;2023-12-22T00:08:24;7.00;69.00
60495;DHT22;46342;49.046;11.920;2023-12-22T00:10:50;7.00;69.10
60495;DHT22;46342;49.046;11.920;2023-12-22T00:13:15;7.00;68.80
60495;DHT22;46342;49.046;11.920;2023-12-22T00:15:41;7.00;68.90
60495;DHT22;46342;49.046;11.920;2023-12-22T00:18:08;7.00;68.90
60495;DHT22;46342;49.046;11.920;2023-12-22T00:20:34;7.00;68.40
60495;DHT22;46342;49.046;11.920;2023-12-22T00:22:59;7.00;68.00
60495;DHT22;46342;49.046;11.920;2023-12-22T00:25:25;6.90;68.20
60495;DHT22;46342;49.046;11.920;2023-12-22T00:27:51;6.90;68.10
60495;DHT22;46342;49.046;11.920;2023-12-22T00:30:16;6.90;68.20
60495;DHT22;46342;49.046;11.920;2023-12-22T00:32:42;6.90;67.90
60495;DHT22;46342;49.046;11.920;2023-12-22T00:35:08;6.90;68.20
60495;DHT22;46342;49.046;11.920;2023-12-22T00:37:33;6.90;67.90
60495;DHT22;46342;49.046;11.920;2023-12-22T00:39:59;6.90;68.00
60495;DHT22;46342;49.046;11.920;2023-12-22T00:42:25;6.90;68.10
60495;DHT22;46342;49.046;11.920;2023-12-22T00:44:51;6.80;68.70
60495;DHT22;46342;49.046;11.920;2023-12-22T00:47:17;6.80;67.60
60495;DHT22;46342;49.046;11.920;2023-12-22T00:49:42;6.80;67.80
60495;DHT22;46342;49.046;11.920;2023-12-22T00:52:08;6.80;67.80
60495;DHT22;46342;49.046;11.920;2023-12-22T00:54:33;6.80;67.90
60495;DHT22;46342;49.046;11.920;2023-12-22T00:56:59;6.80;68.80
60495;DHT22;46342;49.046;11.920;2023-12-22T00:59:25;6.80;68.00
60495;DHT22;46342;49.046;11.920;2023-12-22T01:01:50;6.70;67.90
60495;DHT22;46342;49.046;11.920;2023-12-22T01:04:16;6.70;68.00
60495;DHT22;46342;49.046;11.920;2023-12-22T01:06:41;6.70;68.00
60495;DHT22;46342;49.046;11.920;2023-12-22T01:09:07;6.70;68.10
60495;DHT22;46342;49.046;11.920;2023-12-22T01:11:32;6.70;67.90
60495;DHT22;46342;49.046;11.920;2023-12-22T01:13:58;6.70;68.00
60495;DHT22;46342;49.046;11.920;2023-12-22T01:16:23;6.60;67.90
60495;DHT22;46342;49.046;11.920;2023-12-22T01:18:50;6.60;67.90
60495;DHT22;46342;49.046;11.920;2023-12-22T01:21:16;6.60;68.80
60495;DHT22;46342;49.046;11.920;2023-12-22T01:23:42;6.60;68.00
60495;DHT22;46342;49.046;11.920;2023-12-22T01:26:08;6.60;68.00
60495;DHT22;46342;49.046;11.920;2023-12-22T01:28:34;6.60;68.10
60495;DHT22;46342;49.046;11.920;2023-12-22T01:31:00;6.60;68.10
60495;DHT22;46342;49.046;11.920;2023-12-22T01:33:26;6.50;68.20
60495;DHT22;46342;49.046;11.920;2023-12-22T01:35:51;6.50;68.20
60495;DHT22;46342;49.046;11.920;2023-12-22T01:38:17;6.50;68.20
60495;DHT22;46342;49.046;11.920;2023-12-22T01:40:43;6.50;68.40
60495;DHT22;46342;49.046;11.920;2023-12-22T01:43:08;6.50;68.30
60495;DHT22;46342;49.046;11.920;2023-12-22T01:45:34;6.50;68.40
60495;DHT22;46342;49.046;11.920;2023-12-22T01:48:00;6.50;68.40
60495;DHT22;46342;49.046;11.920;2023-12-22T01:50:26;6.50;68.40
60495;DHT22;46342;49.046;11.920;2023-12-22T01:52:52;6.50;68.50
60495;DHT22;46342;49.046;11.920;2023-12-22T01:55:18;6.50;68.40
60495;DHT22;46342;49.046;11.920;2023-12-22T01:57:44;6.50;68.50
60495;DHT22;46342;49.046;11.920;2023-12-22T02:00:11;6.50;68.40
60495;DHT22;46342;49.046;11.920;2023-12-22T02:02:37;6.50;68.40
60495;DHT22;46342;49.046;11.920;2023-12-22T02:05:04;6.40;68.50
60495;DHT22;46342;49.046;11.920;2023-12-22T02:07:31;6.40;68.40
60495;DHT22;46342;49.046;11.920;2023-12-22T02:09:57;6.40;68.50
60495;DHT22;46342;49.046;11.920;2023-12-22T02:12:23;6.40;68.60
60495;DHT22;46342;49.046;11.920;2023-12-22T02:14:48;6.40;68.70
60495;DHT22;46342;49.046;11.920;2023-12-22T02:17:27;6.40;68.70
60495;DHT22;46342;49.046;11.920;2023-12-22T02:19:55;6.40;68.70
60495;DHT22;46342;49.046;11.920;2023-12-22T02:22:21;6.40;69.70
60495;DHT22;46342;49.046;11.920;2023-12-22T02:24:47;6.40;68.90
60495;DHT22;46342;49.046;11.920;2023-12-22T02:30:01;6.40;68.90
60495;DHT22;46342;49.046;11.920;2023-12-22T02:32:34;6.40;68.90
60495;DHT22;46342;49.046;11.920;2023-12-22T02:35:07;6.40;69.00
60495;DHT22;46342;49.046;11.920;2023-12-22T02:37:35;6.40;69.00
60495;DHT22;46342;49.046;11.920;2023-12-22T02:40:01;6.30;68.90
60495;DHT22;46342;49.046;11.920;2023-12-22T02:42:29;6.30;69.00
60495;DHT22;46342;49.046;11.920;2023-12-22T02:44:56;6.30;69.00
60495;DHT22;46342;49.046;11.920;2023-12-22T02:47:22;6.40;69.00
60495;DHT22;46342;49.046;11.920;2023-12-22T02:49:48;6.30;68.80
60495;DHT22;46342;49.046;11.920;2023-12-22T02:52:13;6.30;68.90
60495;DHT22;46342;49.046;11.920;2023-12-22T02:54:39;6.30;69.10
60495;DHT22;46342;49.046;11.920;2023-12-22T02:57:07;6.30;69.20
60495;DHT22;46342;49.046;11.920;2023-12-22T02:59:33;6.30;69.30
60495;DHT22;46342;49.046;11.920;2023-12-22T03:01:58;6.30;70.30
60495;DHT22;46342;49.046;11.920;2023-12-22T03:04:24;6.30;69.40
60495;DHT22;46342;49.046;11.920;2023-12-22T03:06:49;6.30;69.50
60495;DHT22;46342;49.046;11.920;2023-12-22T03:09:15;6.30;70.50
60495;DHT22;46342;49.046;11.920;2023-12-22T03:11:40;6.30;69.60
60495;DHT22;46342;49.046;11.920;2023-12-22T03:14:06;6.30;69.60
60495;DHT22;46342;49.046;11.920;2023-12-22T03:16:31;6.30;69.60
60495;DHT22;46342;49.046;11.920;2023-12-22T03:18:57;6.30;69.60
60495;DHT22;46342;49.046;11.920;2023-12-22T03:21:22;6.30;69.70
60495;DHT22;46342;49.046;11.920;2023-12-22T03:23:48;6.30;69.60
60495;DHT22;46342;49.046;11.920;2023-12-22T03:26:13;6.30;69.60
60495;DHT22;46342;49.046;11.920;2023-12-22T03:28:39;6.30;69.60
60495;DHT22;46342;49.046;11.920;2023-12-22T03:31:05;6.30;69.60
60495;DHT22;46342;49.046;11.920;2023-12-22T03:33:32;6.30;69.60
60495;DHT22;46342;49.046;11.920;2023-12-22T03:35:57;6.30;69.50
60495;DHT22;46342;49.046;11.920;2023-12-22T03:38:23;6.30;69.50
60495;DHT22;46342;49.046;11.920;2023-12-22T03:40:48;6.30;69.50
60495;DHT22;46342;49.046;11.920;2023-12-22T03:43:14;6.30;69.50
60495;DHT22;46342;49.046;11.920;2023-12-22T03:45:39;6.30;69.60
60495;DHT22;46342;49.046;11.920;2023-12-22T03:48:06;6.30;69.40
60495;DHT22;46342;49.046;11.920;2023-12-22T03:50:31;6.30;69.40
60495;DHT22;46342;49.046;11.920;2023-12-22T03:52:57;6.20;69.20
60495;DHT22;46342;49.046;11.920;2023-12-22T03:55:22;6.20;69.20
60495;DHT22;46342;49.046;11.920;2023-12-22T03:57:48;6.20;69.20
60495;DHT22;46342;49.046;11.920;2023-12-22T04:00:14;6.20;70.10
60495;DHT22;46342;49.046;11.920;2023-12-22T04:02:41;6.20;69.20
60495;DHT22;46342;49.046;11.920;2023-12-22T04:05:07;6.20;69.10
60495;DHT22;46342;49.046;11.920;2023-12-22T04:07:32;6.10;68.90
60495;DHT22;46342;49.046;11.920;2023-12-22T04:09:58;6.10;68.90
60495;DHT22;46342;49.046;11.920;2023-12-22T04:12:24;6.10;68.90
60495;DHT22;46342;49.046;11.920;2023-12-22T04:14:50;6.10;68.90
60495;DHT22;46342;49.046;11.920;2023-12-22T04:17:15;6.10;68.90
60495;DHT22;46342;49.046;11.920;2023-12-22T04:19:41;6.00;68.90
60495;DHT22;46342;49.046;11.920;2023-12-22T04:22:06;6.00;69.00
60495;DHT22;46342;49.046;11.920;2023-12-22T04:24:32;6.00;69.00
60495;DHT22;46342;49.046;11.920;2023-12-22T04:26:57;5.90;68.90
60495;DHT22;46342;49.046;11.920;2023-12-22T04:29:23;5.90;68.90
60495;DHT22;46342;49.046;11.920;2023-12-22T04:31:48;5.90;68.90
60495;DHT22;46342;49.046;11.920;2023-12-22T04:34:14;5.90;68.90
60495;DHT22;46342;49.046;11.920;2023-12-22T04:36:41;5.80;68.80
60495;DHT22;46342;49.046;11.920;2023-12-22T04:39:07;5.80;68.90
60495;DHT22;46342;49.046;11.920;2023-12-22T04:41:32;5.80;68.90
60495;DHT22;46342;49.046;11.920;2023-12-22T04:43:58;5.80;69.00
60495;DHT22;46342;49.046;11.920;2023-12-22T04:46:28;5.80;69.10
60495;DHT22;46342;49.046;11.920;2023-12-22T04:48:54;5.70;69.10
60495;DHT22;46342;49.046;11.920;2023-12-22T04:51:19;5.70;69.20
60495;DHT22;46342;49.046;11.920;2023-12-22T04:53:45;5.70;69.20
60495;DHT22;46342;49.046;11.920;2023-12-22T04:56:10;5.70;69.30
60495;DHT22;46342;49.046;11.920;2023-12-22T04:58:36;5.70;69.40
60495;DHT22;46342;49.046;11.920;2023-12-22T05:01:02;5.70;69.40
60495;DHT22;46342;49.046;11.920;2023-12-22T05:03:27;5.70;69.40
60495;DHT22;46342;49.046;11.920;2023-12-22T05:05:53;5.70;69.40
60495;DHT22;46342;49.046;11.920;2023-12-22T05:08:18;5.70;69.40
60495;DHT22;46342;49.046;11.920;2023-12-22T05:10:44;5.70;69.40
60495;DHT22;46342;49.046;11.920;2023-12-22T05:13:09;5.60;69.20
60495;DHT22;46342;49.046;11.920;2023-12-22T05:15:35;5.60;69.20
60495;DHT22;46342;49.046;11.920;2023-12-22T05:18:01;5.60;69.30
60495;DHT22;46342;49.046;11.920;2023-12-22T05:20:26;5.60;69.20
60495;DHT22;46342;49.046;11.920;2023-12-22T05:22:52;5.60;69.30
60495;DHT22;46342;49.046;11.920;2023-12-22T05:25:18;5.60;69.40
60495;DHT22;46342;49.046;11.920;2023-12-22T05:27:43;5.60;69.50
60495;DHT22;46342;49.046;11.920;2023-12-22T05:30:09;5.50;69.40
60495;DHT22;46342;49.046;11.920;2023-12-22T05:32:35;5.50;69.50
60495;DHT22;46342;49.046;11.920;2023-12-22T05:35:01;5.50;69.60
60495;DHT22;46342;49.046;11.920;2023-12-22T05:37:26;5.60;69.70
60495;DHT22;46342;49.046;11.920;2023-12-22T05:39:52;5.60;69.80
60495;DHT22;46342;49.046;11.920;2023-12-22T05:42:17;5.50;69.70
60495;DHT22;46342;49.046;11.920;2023-12-22T05:44:43;5.50;69.80
60495;DHT22;46342;49.046;11.920;2023-12-22T05:47:09;5.50;69.80
60495;DHT22;46342;49.046;11.920;2023-12-22T05:49:36;5.50;69.80
60495;DHT22;46342;49.046;11.920;2023-12-22T05:52:04;5.60;70.00
60495;DHT22;46342;49.046;11.920;2023-12-22T05:54:30;5.60;70.00
60495;DHT22;46342;49.046;11.920;2023-12-22T05:56:55;5.60;70.00
60495;DHT22;46342;49.046;11.920;2023-12-22T05:59:21;5.60;70.00
60495;DHT22;46342;49.046;11.920;2023-12-22T06:01:46;5.60;70.00
60495;DHT22;46342;49.046;11.920;2023-12-22T06:04:12;5.60;70.00
60495;DHT22;46342;49.046;11.920;2023-12-22T06:06:38;5.60;70.90
60495;DHT22;46342;49.046;11.920;2023-12-22T06:09:04;5.60;70.00
60495;DHT22;46342;49.046;11.920;2023-12-22T06:11:30;5.60;70.00
60495;DHT22;46342;49.046;11.920;2023-12-22T06:13:56;5.60;70.00
60495;DHT22;46342;49.046;11.920;2023-12-22T06:16:22;5.70;70.10
60495;DHT22;46342;49.046;11.920;2023-12-22T06:18:48;5.70;70.10
60495;DHT22;46342;49.046;11.920;2023-12-22T06:21:13;5.70;70.20
60495;DHT22;46342;49.046;11.920;2023-12-22T06:23:40;5.70;70.10
60495;DHT22;46342;49.046;11.920;2023-12-22T06:26:12;5.70;70.10
60495;DHT22;46342;49.046;11.920;2023-12-22T06:28:38;5.70;70.30
60495;DHT22;46342;49.046;11.920;2023-12-22T06:31:06;5.70;70.10
60495;DHT22;46342;49.046;11.920;2023-12-22T06:33:31;5.70;70.30
60495;DHT22;46342;49.046;11.920;2023-12-22T06:35:57;5.70;70.30
60495;DHT22;46342;49.046;11.920;2023-12-22T06:38:22;5.70;70.20
60495;DHT22;46342;49.046;11.920;2023-12-22T06:40:48;5.70;70.20
60495;DHT22;46342;49.046;11.920;2023-12-22T06:43:14;5.70;70.30
60495;DHT22;46342;49.046;11.920;2023-12-22T06:45:40;5.70;70.20
60495;DHT22;46342;49.046;11.920;2023-12-22T06:48:06;5.80;70.30
60495;DHT22;46342;49.046;11.920;2023-12-22T06:50:32;5.80;70.20
60495;DHT22;46342;49.046;11.920;2023-12-22T06:52:58;5.80;71.20
60495;DHT22;46342;49.046;11.920;2023-12-22T06:55:23;5.80;70.20
60495;DHT22;46342;49.046;11.920;2023-12-22T06:57:49;5.80;70.20
60495;DHT22;46342;49.046;11.920;2023-12-22T07:00:15;5.70;70.90
60495;DHT22;46342;49.046;11.920;2023-12-22T07:02:41;5.70;69.80
60495;DHT22;46342;49.046;11.920;2023-12-22T07:07:35;5.70;69.80
60495;DHT22;46342;49.046;11.920;2023-12-22T07:10:01;5.80;70.00
60495;DHT22;46342;49.046;11.920;2023-12-22T07:12:26;5.70;69.50
60495;DHT22;46342;49.046;11.920;2023-12-22T07:14:52;5.70;69.60
60495;DHT22;46342;49.046;11.920;2023-12-22T07:17:18;5.70;69.60
60495;DHT22;46342;49.046;11.920;2023-12-22T07:19:43;5.60;69.60
60495;DHT22;46342;49.046;11.920;2023-12-22T07:22:09;5.60;69.70
60495;DHT22;46342;49.046;11.920;2023-12-22T07:24:34;5.60;69.70
60495;DHT22;46342;49.046;11.920;2023-12-22T07:27:00;5.60;69.80
60495;DHT22;46342;49.046;11.920;2023-12-22T07:29:26;5.60;69.90
60495;DHT22;46342;49.046;11.920;2023-12-22T07:31:51;5.60;70.00
60495;DHT22;46342;49.046;11.920;2023-12-22T07:34:17;5.60;70.10
60495;DHT22;46342;49.046;11.920;2023-12-22T07:36:43;5.60;70.20
60495;DHT22;46342;49.046;11.920;2023-12-22T07:39:09;5.60;70.40
60495;DHT22;46342;49.046;11.920;2023-12-22T07:41:36;5.60;70.50
60495;DHT22;46342;49.046;11.920;2023-12-22T07:44:01;5.60;71.60
60495;DHT22;46342;49.046;11.920;2023-12-22T07:46:27;5.60;70.80
60495;DHT22;46342;49.046;11.920;2023-12-22T07:48:56;5.60;70.80
60495;DHT22;46342;49.046;11.920;2023-12-22T07:51:21;5.70;71.00
60495;DHT22;46342;49.046;11.920;2023-12-22T07:53:47;5.70;71.10
60495;DHT22;46342;49.046;11.920;2023-12-22T07:56:12;5.70;71.10
60495;DHT22;46342;49.046;11.920;2023-12-22T07:58:38;5.80;72.10
60495;DHT22;46342;49.046;11.920;2023-12-22T08:01:04;5.80;71.20
60495;DHT22;46342;49.046;11.920;2023-12-22T08:03:31;5.80;71.20
60495;DHT22;46342;49.046;11.920;2023-12-22T08:05:57;5.90;71.40
60495;DHT22;46342;49.046;11.920;2023-12-22T08:08:22;5.90;71.40
60495;DHT22;46342;49.046;11.920;2023-12-22T08:10:48;5.90;71.40
60495;DHT22;46342;49.046;11.920;2023-12-22T08:13:13;6.00;71.50
60495;DHT22;46342;49.046;11.920;2023-12-22T08:15:39;6.00;71.50
60495;DHT22;46342;49.046;11.920;2023-12-22T08:18:05;6.00;71.50
60495;DHT22;46342;49.046;11.920;2023-12-22T08:20:31;6.10;71.60
60495;DHT22;46342;49.046;11.920;2023-12-22T08:22:56;6.10;71.60
60495;DHT22;46342;49.046;11.920;2023-12-22T08:25:22;6.10;71.50
60495;DHT22;46342;49.046;11.920;2023-12-22T08:27:47;6.10;71.50
60495;DHT22;46342;49.046;11.920;2023-12-22T08:30:13;6.20;72.50
60495;DHT22;46342;49.046;11.920;2023-12-22T08:32:40;6.20;71.60
60495;DHT22;46342;49.046;11.920;2023-12-22T08:35:06;6.20;71.70
60495;DHT22;46342;49.046;11.920;2023-12-22T08:37:32;6.20;71.70
60495;DHT22;46342;49.046;11.920;2023-12-22T08:39:57;6.20;71.80
60495;DHT22;46342;49.046;11.920;2023-12-22T08:42:28;6.20;71.90
60495;DHT22;46342;49.046;11.920;2023-12-22T08:44:54;6.30;72.10
60495;DHT22;46342;49.046;11.920;2023-12-22T08:47:20;6.30;73.00
60495;DHT22;46342;49.046;11.920;2023-12-22T08:49:45;6.30;72.20
60495;DHT22;46342;49.046;11.920;2023-12-22T08:52:11;6.40;72.30
60495;DHT22;46342;49.046;11.920;2023-12-22T08:54:36;6.40;72.30
60495;DHT22;46342;49.046;11.920;2023-12-22T08:57:02;6.40;72.20
60495;DHT22;46342;49.046;11.920;2023-12-22T08:59:28;6.50;72.30
60495;DHT22;46342;49.046;11.920;2023-12-22T09:01:54;6.50;72.20
60495;DHT22;46342;49.046;11.920;2023-12-22T09:04:19;6.60;72.30
60495;DHT22;46342;49.046;11.920;2023-12-22T09:06:48;6.60;72.00
60495;DHT22;46342;49.046;11.920;2023-12-22T09:09:14;6.60;72.00
60495;DHT22;46342;49.046;11.920;2023-12-22T09:11:39;6.70;72.10
60495;DHT22;46342;49.046;11.920;2023-12-22T09:14:05;6.70;72.00
60495;DHT22;46342;49.046;11.920;2023-12-22T09:16:35;6.70;72.00
60495;DHT22;46342;49.046;11.920;2023-12-22T09:19:00;6.80;72.10
60495;DHT22;46342;49.046;11.920;2023-12-22T09:21:26;6.80;71.90
60495;DHT22;46342;49.046;11.920;2023-12-22T09:23:52;6.80;71.80
60495;DHT22;46342;49.046;11.920;2023-12-22T09:26:17;6.80;71.80
60495;DHT22;46342;49.046;11.920;2023-12-22T09:28:43;6.80;71.70
60495;DHT22;46342;49.046;11.920;2023-12-22T09:31:10;6.80;71.70
60495;DHT22;46342;49.046;11.920;2023-12-22T09:33:36;6.90;71.80
60495;DHT22;46342;49.046;11.920;2023-12-22T09:36:02;6.90;71.80
60495;DHT22;46342;49.046;11.920;2023-12-22T09:38:27;6.90;71.80
60495;DHT22;46342;49.046;11.920;2023-12-22T09:40:55;6.90;71.80
60495;DHT22;46342;49.046;11.920;2023-12-22T09:43:21;6.90;72.00
60495;DHT22;46342;49.046;11.920;2023-12-22T09:45:48;6.90;72.00
60495;DHT22;46342;49.046;11.920;2023-12-22T09:48:15;6.90;72.00
60495;DHT22;46342;49.046;11.920;2023-12-22T09:50:43;6.90;72.00
60495;DHT22;46342;49.046;11.920;2023-12-22T09:53:12;7.00;72.10
60495;DHT22;46342;49.046;11.920;2023-12-22T09:55:42;7.00;72.10
60495;DHT22;46342;49.046;11.920;2023-12-22T09:58:08;7.00;72.10
60495;DHT22;46342;49.046;11.920;2023-12-22T10:00:36;7.00;72.10
60495;DHT22;46342;49.046;11.920;2023-12-22T10:03:06;7.10;72.20
60495;DHT22;46342;49.046;11.920;2023-12-22T10:05:31;7.10;71.90
60495;DHT22;46342;49.046;11.920;2023-12-22T10:08:00;7.10;72.00
60495;DHT22;46342;49.046;11.920;2023-12-22T10:10:28;7.10;71.90
60495;DHT22;46342;49.046;11.920;2023-12-22T10:12:54;7.20;72.00
60495;DHT22;46342;49.046;11.920;2023-12-22T10:15:21;7.20;71.90
60495;DHT22;46342;49.046;11.920;2023-12-22T10:17:50;7.20;71.90
60495;DHT22;46342;49.046;11.920;2023-12-22T10:20:16;7.20;71.90
60495;DHT22;46342;49.046;11.920;2023-12-22T10:22:42;7.30;71.90
60495;DHT22;46342;49.046;11.920;2023-12-22T10:25:08;7.30;72.70
60495;DHT22;46342;49.046;11.920;2023-12-22T10:27:35;7.30;71.70
60495;DHT22;46342;49.046;11.920;2023-12-22T10:30:02;7.30;71.70
60495;DHT22;46342;49.046;11.920;2023-12-22T10:32:28;7.40;71.80
60495;DHT22;46342;49.046;11.920;2023-12-22T10:34:55;7.40;71.60
60495;DHT22;46342;49.046;11.920;2023-12-22T10:37:21;7.40;71.50
60495;DHT22;46342;49.046;11.920;2023-12-22T10:39:47;7.40;71.40
60495;DHT22;46342;49.046;11.920;2023-12-22T10:42:14;7.30;71.20
60495;DHT22;46342;49.046;11.920;2023-12-22T10:44:40;7.30;71.10
60495;DHT22;46342;49.046;11.920;2023-12-22T10:47:07;7.30;70.90
60495;DHT22;46342;49.046;11.920;2023-12-22T10:49:32;7.30;70.90
60495;DHT22;46342;49.046;11.920;2023-12-22T10:51:59;7.30;70.90
60495;DHT22;46342;49.046;11.920;2023-12-22T10:54:24;7.20;70.90
60495;DHT22;46342;49.046;11.920;2023-12-22T10:56:50;7.20;70.80
60495;DHT22;46342;49.046;11.920;2023-12-22T10:59:22;7.20;70.90
60495;DHT22;46342;49.046;11.920;2023-12-22T11:01:48;7.20;71.00
60495;DHT22;46342;49.046;11.920;2023-12-22T11:04:17;7.10;70.90
60495;DHT22;46342;49.046;11.920;2023-12-22T11:06:47;7.10;70.90
60495;DHT22;46342;49.046;11.920;2023-12-22T11:09:16;7.10;71.10
60495;DHT22;46342;49.046;11.920;2023-12-22T11:11:42;7.10;71.30
60495;DHT22;46342;49.046;11.920;2023-12-22T11:14:08;7.10;71.30
60495;DHT22;46342;49.046;11.920;2023-12-22T11:16:35;7.10;71.50
60495;DHT22;46342;49.046;11.920;2023-12-22T11:19:02;7.10;71.60
60495;DHT22;46342;49.046;11.920;2023-12-22T11:21:28;7.10;71.80
60495;DHT22;46342;49.046;11.920;2023-12-22T11:23:55;7.10;73.00
60495;DHT22;46342;49.046;11.920;2023-12-22T11:26:23;7.20;72.20
60495;DHT22;46342;49.046;11.920;2023-12-22T11:28:50;7.20;72.70
60495;DHT22;46342;49.046;11.920;2023-12-22T11:31:19;7.20;72.40
60495;DHT22;46342;49.046;11.920;2023-12-22T11:33:50;7.20;72.50
60495;DHT22;46342;49.046;11.920;2023-12-22T11:36:17;7.20;73.30
60495;DHT22;46342;49.046;11.920;2023-12-22T11:38:46;7.30;72.40
60495;DHT22;46342;49.046;11.920;2023-12-22T11:41:27;7.30;72.20
60495;DHT22;46342;49.046;11.920;2023-12-22T11:43:55;7.30;72.20
60495;DHT22;46342;49.046;11.920;2023-12-22T11:46:22;7.30;72.10
60495;DHT22;46342;49.046;11.920;2023-12-22T11:48:50;7.30;72.00
60495;DHT22;46342;49.046;11.920;2023-12-22T11:51:17;7.30;72.10
60495;DHT22;46342;49.046;11.920;2023-12-22T11:53:43;7.30;72.00
60495;DHT22;46342;49.046;11.920;2023-12-22T11:56:10;7.30;72.00
60495;DHT22;46342;49.046;11.920;2023-12-22T11:58:43;7.30;72.00
60495;DHT22;46342;49.046;11.920;2023-12-22T12:01:17;7.30;72.90
60495;DHT22;46342;49.046;11.920;2023-12-22T12:03:57;7.30;71.90
60495;DHT22;46342;49.046;11.920;2023-12-22T12:09:04;7.30;72.10
60495;DHT22;46342;49.046;11.920;2023-12-22T12:14:22;7.40;72.60
60495;DHT22;46342;49.046;11.920;2023-12-22T12:16:48;7.40;72.50
60495;DHT22;46342;49.046;11.920;2023-12-22T12:19:14;7.40;72.40
60495;DHT22;46342;49.046;11.920;2023-12-22T12:21:40;7.40;72.50
60495;DHT22;46342;49.046;11.920;2023-12-22T12:24:05;7.40;72.50
60495;DHT22;46342;49.046;11.920;2023-12-22T12:26:33;7.40;72.50
60495;DHT22;46342;49.046;11.920;2023-12-22T12:28:59;7.40;72.70
60495;DHT22;46342;49.046;11.920;2023-12-22T12:31:51;7.50;72.80
60495;DHT22;46342;49.046;11.920;2023-12-22T12:34:17;7.50;73.20
60495;DHT22;46342;49.046;11.920;2023-12-22T12:36:47;7.50;72.70
60495;DHT22;46342;49.046;11.920;2023-12-22T12:39:14;7.50;72.80
60495;DHT22;46342;49.046;11.920;2023-12-22T12:41:42;7.50;72.90
60495;DHT22;46342;49.046;11.920;2023-12-22T12:44:11;7.50;72.80
60495;DHT22;46342;49.046;11.920;2023-12-22T12:46:38;7.60;73.00
60495;DHT22;46342;49.046;11.920;2023-12-22T12:49:10;7.50;72.90
60495;DHT22;46342;49.046;11.920;2023-12-22T12:51:43;7.60;73.20
60495;DHT22;46342;49.046;11.920;2023-12-22T12:54:10;7.60;73.20
60495;DHT22;46342;49.046;11.920;2023-12-22T12:56:45;7.60;73.20
60495;DHT22;46342;49.046;11.920;2023-12-22T12:59:12;7.60;73.60
60495;DHT22;46342;49.046;11.920;2023-12-22T13:01:45;7.70;73.40
60495;DHT22;46342;49.046;11.920;2023-12-22T13:04:11;7.70;73.60
60495;DHT22;46342;49.046;11.920;2023-12-22T13:06:47;7.70;73.50
60495;DHT22;46342;49.046;11.920;2023-12-22T13:09:13;7.80;73.80
60495;DHT22;46342;49.046;11.920;2023-12-22T13:11:40;7.80;73.60
60495;DHT22;46342;49.046;11.920;2023-12-22T13:14:08;7.80;73.60
60495;DHT22;46342;49.046;11.920;2023-12-22T13:16:34;7.80;74.00
60495;DHT22;46342;49.046;11.920;2023-12-22T13:19:01;7.80;73.40
60495;DHT22;46342;49.046;11.920;2023-12-22T13:21:30;7.90;73.60
60495;DHT22;46342;49.046;11.920;2023-12-22T13:24:17;7.90;74.00
60495;DHT22;46342;49.046;11.920;2023-12-22T13:26:44;8.00;74.50
60495;DHT22;46342;49.046;11.920;2023-12-22T13:29:10;8.00;73.90
60495;DHT22;46342;49.046;11.920;2023-12-22T13:31:38;8.00;74.00
60495;DHT22;46342;49.046;11.920;2023-12-22T13:34:11;8.00;74.10
60495;DHT22;46342;49.046;11.920;2023-12-22T13:36:37;8.00;74.30
60495;DHT22;46342;49.046;11.920;2023-12-22T13:39:07;8.10;74.20
60495;DHT22;46342;49.046;11.920;2023-12-22T13:41:40;8.10;74.30
60495;DHT22;46342;49.046;11.920;2023-12-22T13:44:07;8.10;74.50
60495;DHT22;46342;49.046;11.920;2023-12-22T13:46:33;8.10;74.20
60495;DHT22;46342;49.046;11.920;2023-12-22T13:49:02;8.20;75.10
60495;DHT22;46342;49.046;11.920;2023-12-22T13:51:45;8.20;74.20
60495;DHT22;46342;49.046;11.920;2023-12-22T13:54:13;8.30;74.60
60495;DHT22;46342;49.046;11.920;2023-12-22T13:56:39;8.30;74.20
60495;DHT22;46342;49.046;11.920;2023-12-22T13:59:09;8.30;74.20
60495;DHT22;46342;49.046;11.920;2023-12-22T14:01:35;8.30;74.20
60495;DHT22;46342;49.046;11.920;2023-12-22T14:04:01;8.30;74.20
60495;DHT22;46342;49.046;11.920;2023-12-22T14:06:27;8.40;74.30
60495;DHT22;46342;49.046;11.920;2023-12-22T14:08:53;8.50;74.40
60495;DHT22;46342;49.046;11.920;2023-12-22T14:11:19;8.40;74.30
60495;DHT22;46342;49.046;11.920;2023-12-22T14:13:45;8.50;74.40
60495;DHT22;46342;49.046;11.920;2023-12-22T14:16:10;8.50;74.30
60495;DHT22;46342;49.046;11.920;2023-12-22T14:18:36;8.50;74.30
60495;DHT22;46342;49.046;11.920;2023-12-22T14:21:01;8.50;74.30
60495;DHT22;46342;49.046;11.920;2023-12-22T14:23:29;8.50;74.20
60495;DHT22;46342;49.046;11.920;2023-12-22T14:25:54;8.60;74.30
60495;DHT22;46342;49.046;11.920;2023-12-22T14:28:20;8.50;74.20
60495;DHT22;46342;49.046;11.920;2023-12-22T14:30:46;8.60;74.20
60495;DHT22;46342;49.046;11.920;2023-12-22T14:33:11;8.60;74.30
60495;DHT22;46342;49.046;11.920;2023-12-22T14:35:37;8.60;74.20
60495;DHT22;46342;49.046;11.920;2023-12-22T14:38:03;8.60;74.20
60495;DHT22;46342;49.046;11.920;2023-12-22T14:40:29;8.60;74.20
60495;DHT22;46342;49.046;11.920;2023-12-22T14:42:54;8.60;74.20
60495;DHT22;46342;49.046;11.920;2023-12-22T14:45:20;8.60;74.10
60495;DHT22;46342;49.046;11.920;2023-12-22T14:47:45;8.60;74.10
60495;DHT22;46342;49.046;11.920;2023-12-22T14:50:11;8.60;74.10
60495;DHT22;46342;49.046;11.920;2023-12-22T14:52:37;8.70;74.10
60495;DHT22;46342;49.046;11.920;2023-12-22T14:55:02;8.70;74.10
60495;DHT22;46342;49.046;11.920;2023-12-22T14:57:30;8.70;74.10
60495;DHT22;46342;49.046;11.920;2023-12-22T14:59:55;8.70;74.10
60495;DHT22;46342;49.046;11.920;2023-12-22T15:02:21;8.70;74.10
60495;DHT22;46342;49.046;11.920;2023-12-22T15:04:47;8.70;74.10
60495;DHT22;46342;49.046;11.920;2023-12-22T15:07:16;8.70;74.10
60495;DHT22;46342;49.046;11.920;2023-12-22T15:09:42;8.70;74.30
60495;DHT22;46342;49.046;11.920;2023-12-22T15:12:08;8.70;74.20
60495;DHT22;46342;49.046;11.920;2023-12-22T15:14:34;8.70;74.30
60495;DHT22;46342;49.046;11.920;2023-12-22T15:16:59;8.70;74.30
60495;DHT22;46342;49.046;11.920;2023-12-22T15:19:25;8.80;74.50
60495;DHT22;46342;49.046;11.920;2023-12-22T15:21:52;8.80;74.50
60495;DHT22;46342;49.046;11.920;2023-12-22T15:24:17;8.80;74.60
60495;DHT22;46342;49.046;11.920;2023-12-22T15:26:43;8.80;74.60
60495;DHT22;46342;49.046;11.920;2023-12-22T15:29:08;8.80;74.70
60495;DHT22;46342;49.046;11.920;2023-12-22T15:31:34;8.80;74.70
60495;DHT22;46342;49.046;11.920;2023-12-22T15:34:00;8.80;74.70
60495;DHT22;46342;49.046;11.920;2023-12-22T15:36:26;8.90;74.90